sensor_id;sensor_type;location;lat;lon;timestamp;P1;durP1;ratioP1;P2;durP2;ratioP2
6101;SDS011;3081;50.584;7.032;2023-05-29T00:02:07;19.17;;;4.10;;
6101;SDS011;3081;50.584;7.032;2023-05-29T00:04:34;19.07;;;4.27;;
6101;SDS011;3081;50.584;7.032;2023-05-29T00:07:02;14.83;;;4.73;;
6101;SDS011;3081;50.584;7.032;2023-05-29T00:09:29;12.70;;;4.13;;
6101;SDS011;3081;50.584;7.032;2023-05-29T00:11:58;12.40;;;4.40;;
6101;SDS011;3081;50.584;7.032;2023-05-29T00:14:26;13.00;;;4.80;;
6101;SDS011;3081;50.584;7.032;2023-05-29T00:16:53;11.20;;;4.10;;
6101;SDS011;3081;50.584;7.032;2023-05-29T00:19:20;13.63;;;4.50;;
6101;SDS011;3081;50.584;7.032;2023-05-29T00:21:46;12.93;;;4.70;;
6101;SDS011;3081;50.584;7.032;2023-05-29T00:24:13;14.10;;;4.50;;
6101;SDS011;3081;50.584;7.032;2023-05-29T00:26:41;14.07;;;4.70;;
6101;SDS011;3081;50.584;7.032;2023-05-29T00:29:09;15.20;;;4.70;;
6101;SDS011;3081;50.584;7.032;2023-05-29T00:31:36;15.77;;;4.77;;
6101;SDS011;3081;50.584;7.032;2023-05-29T00:34:03;15.27;;;4.90;;
6101;SDS011;3081;50.584;7.032;2023-05-29T00:36:29;20.23;;;4.40;;
6101;SDS011;3081;50.584;7.032;2023-05-29T00:38:57;13.57;;;5.27;;
6101;SDS011;3081;50.584;7.032;2023-05-29T00:41:24;14.10;;;4.90;;
6101;SDS011;3081;50.584;7.032;2023-05-29T00:43:51;13.40;;;4.70;;
6101;SDS011;3081;50.584;7.032;2023-05-29T00:46:19;16.43;;;4.93;;
6101;SDS011;3081;50.584;7.032;2023-05-29T00:48:47;13.33;;;4.57;;
6101;SDS011;3081;50.584;7.032;2023-05-29T00:51:14;12.20;;;4.63;;
6101;SDS011;3081;50.584;7.032;2023-05-29T00:53:42;13.73;;;4.53;;
6101;SDS011;3081;50.584;7.032;2023-05-29T00:56:11;11.93;;;4.70;;
6101;SDS011;3081;50.584;7.032;2023-05-29T00:58:39;11.73;;;4.90;;
6101;SDS011;3081;50.584;7.032;2023-05-29T01:01:07;12.03;;;5.00;;
6101;SDS011;3081;50.584;7.032;2023-05-29T01:03:36;13.30;;;4.60;;
6101;SDS011;3081;50.584;7.032;2023-05-29T01:06:03;12.00;;;5.17;;
6101;SDS011;3081;50.584;7.032;2023-05-29T01:08:30;9.93;;;4.03;;
6101;SDS011;3081;50.584;7.032;2023-05-29T01:11:00;13.73;;;4.90;;
6101;SDS011;3081;50.584;7.032;2023-05-29T01:13:46;11.90;;;4.87;;
6101;SDS011;3081;50.584;7.032;2023-05-29T01:16:17;14.70;;;5.30;;
6101;SDS011;3081;50.584;7.032;2023-05-29T01:18:51;14.33;;;4.67;;
6101;SDS011;3081;50.584;7.032;2023-05-29T01:21:23;11.20;;;4.40;;
6101;SDS011;3081;50.584;7.032;2023-05-29T01:24:02;12.20;;;5.30;;
6101;SDS011;3081;50.584;7.032;2023-05-29T01:26:46;13.80;;;4.63;;
6101;SDS011;3081;50.584;7.032;2023-05-29T01:29:17;14.23;;;5.20;;
6101;SDS011;3081;50.584;7.032;2023-05-29T01:31:45;12.80;;;5.00;;
6101;SDS011;3081;50.584;7.032;2023-05-29T01:34:13;12.33;;;4.83;;
6101;SDS011;3081;50.584;7.032;2023-05-29T01:36:40;12.50;;;4.43;;
6101;SDS011;3081;50.584;7.032;2023-05-29T01:39:07;11.37;;;4.57;;
6101;SDS011;3081;50.584;7.032;2023-05-29T01:41:35;12.40;;;4.40;;
6101;SDS011;3081;50.584;7.032;2023-05-29T01:44:06;11.63;;;4.53;;
6101;SDS011;3081;50.584;7.032;2023-05-29T01:46:35;12.90;;;4.70;;
6101;SDS011;3081;50.584;7.032;2023-05-29T01:49:03;13.20;;;4.40;;
6101;SDS011;3081;50.584;7.032;2023-05-29T01:51:30;13.30;;;4.67;;
6101;SDS011;3081;50.584;7.032;2023-05-29T01:53:58;12.47;;;4.23;;
6101;SDS011;3081;50.584;7.032;2023-05-29T01:56:26;12.70;;;4.57;;
6101;SDS011;3081;50.584;7.032;2023-05-29T01:58:53;15.53;;;3.70;;
6101;SDS011;3081;50.584;7.032;2023-05-29T02:01:23;14.80;;;5.00;;
6101;SDS011;3081;50.584;7.032;2023-05-29T02:03:50;13.30;;;4.83;;
6101;SDS011;3081;50.584;7.032;2023-05-29T02:06:17;11.20;;;4.00;;
6101;SDS011;3081;50.584;7.032;2023-05-29T02:08:44;13.53;;;4.73;;
6101;SDS011;3081;50.584;7.032;2023-05-29T02:11:11;13.23;;;4.13;;
6101;SDS011;3081;50.584;7.032;2023-05-29T02:13:38;14.30;;;4.40;;
6101;SDS011;3081;50.584;7.032;2023-05-29T02:16:05;10.77;;;4.43;;
6101;SDS011;3081;50.584;7.032;2023-05-29T02:18:34;10.20;;;5.03;;
6101;SDS011;3081;50.584;7.032;2023-05-29T02:21:01;11.83;;;4.60;;
6101;SDS011;3081;50.584;7.032;2023-05-29T02:23:28;11.50;;;4.33;;
6101;SDS011;3081;50.584;7.032;2023-05-29T02:25:55;12.37;;;5.20;;
6101;SDS011;3081;50.584;7.032;2023-05-29T02:28:22;11.93;;;4.60;;
6101;SDS011;3081;50.584;7.032;2023-05-29T02:30:50;11.90;;;5.03;;
6101;SDS011;3081;50.584;7.032;2023-05-29T02:33:17;11.73;;;4.60;;
6101;SDS011;3081;50.584;7.032;2023-05-29T02:35:46;11.30;;;5.00;;
6101;SDS011;3081;50.584;7.032;2023-05-29T02:38:13;14.60;;;4.73;;
6101;SDS011;3081;50.584;7.032;2023-05-29T02:40:40;12.43;;;4.27;;
6101;SDS011;3081;50.584;7.032;2023-05-29T02:43:07;20.47;;;4.93;;
6101;SDS011;3081;50.584;7.032;2023-05-29T02:45:35;11.43;;;4.80;;
6101;SDS011;3081;50.584;7.032;2023-05-29T02:48:02;13.00;;;4.37;;
6101;SDS011;3081;50.584;7.032;2023-05-29T02:50:29;11.73;;;4.70;;
6101;SDS011;3081;50.584;7.032;2023-05-29T02:52:57;11.60;;;4.70;;
6101;SDS011;3081;50.584;7.032;2023-05-29T02:55:24;11.93;;;4.50;;
6101;SDS011;3081;50.584;7.032;2023-05-29T02:57:51;16.67;;;4.80;;
6101;SDS011;3081;50.584;7.032;2023-05-29T03:00:20;16.73;;;4.90;;
6101;SDS011;3081;50.584;7.032;2023-05-29T03:02:47;9.03;;;4.40;;
6101;SDS011;3081;50.584;7.032;2023-05-29T03:05:14;8.50;;;4.43;;
6101;SDS011;3081;50.584;7.032;2023-05-29T03:07:41;10.30;;;5.13;;
6101;SDS011;3081;50.584;7.032;2023-05-29T03:10:10;9.90;;;4.90;;
6101;SDS011;3081;50.584;7.032;2023-05-29T03:12:37;8.73;;;4.30;;
6101;SDS011;3081;50.584;7.032;2023-05-29T03:15:05;10.33;;;5.23;;
6101;SDS011;3081;50.584;7.032;2023-05-29T03:17:32;12.23;;;4.40;;
6101;SDS011;3081;50.584;7.032;2023-05-29T03:20:01;8.90;;;4.10;;
6101;SDS011;3081;50.584;7.032;2023-05-29T03:22:31;12.73;;;4.40;;
6101;SDS011;3081;50.584;7.032;2023-05-29T03:24:58;7.30;;;2.47;;
6101;SDS011;3081;50.584;7.032;2023-05-29T03:27:27;17.83;;;5.23;;
6101;SDS011;3081;50.584;7.032;2023-05-29T03:29:54;10.83;;;4.00;;
6101;SDS011;3081;50.584;7.032;2023-05-29T03:32:21;10.03;;;4.80;;
6101;SDS011;3081;50.584;7.032;2023-05-29T03:34:48;11.80;;;4.40;;
6101;SDS011;3081;50.584;7.032;2023-05-29T03:37:15;10.33;;;4.50;;
6101;SDS011;3081;50.584;7.032;2023-05-29T03:39:42;7.20;;;2.50;;
6101;SDS011;3081;50.584;7.032;2023-05-29T03:42:08;10.03;;;4.10;;
6101;SDS011;3081;50.584;7.032;2023-05-29T03:44:37;8.87;;;4.23;;
6101;SDS011;3081;50.584;7.032;2023-05-29T03:47:04;8.43;;;3.77;;
6101;SDS011;3081;50.584;7.032;2023-05-29T03:49:33;9.80;;;3.47;;
6101;SDS011;3081;50.584;7.032;2023-05-29T03:52:00;8.03;;;3.80;;
6101;SDS011;3081;50.584;7.032;2023-05-29T03:54:27;10.33;;;3.47;;
6101;SDS011;3081;50.584;7.032;2023-05-29T03:56:54;7.17;;;3.80;;
6101;SDS011;3081;50.584;7.032;2023-05-29T03:59:21;7.27;;;4.00;;
6101;SDS011;3081;50.584;7.032;2023-05-29T04:01:49;11.30;;;3.77;;
6101;SDS011;3081;50.584;7.032;2023-05-29T04:04:16;7.00;;;3.00;;
6101;SDS011;3081;50.584;7.032;2023-05-29T04:06:43;8.63;;;4.20;;
6101;SDS011;3081;50.584;7.032;2023-05-29T04:09:10;8.87;;;3.63;;
6101;SDS011;3081;50.584;7.032;2023-05-29T04:11:37;5.27;;;2.13;;
6101;SDS011;3081;50.584;7.032;2023-05-29T04:14:06;7.73;;;4.07;;
6101;SDS011;3081;50.584;7.032;2023-05-29T04:16:33;7.87;;;3.90;;
6101;SDS011;3081;50.584;7.032;2023-05-29T04:19:01;8.60;;;3.40;;
6101;SDS011;3081;50.584;7.032;2023-05-29T04:21:28;5.40;;;2.40;;
6101;SDS011;3081;50.584;7.032;2023-05-29T04:23:57;8.27;;;3.43;;
6101;SDS011;3081;50.584;7.032;2023-05-29T04:26:24;9.43;;;3.73;;
6101;SDS011;3081;50.584;7.032;2023-05-29T04:28:51;6.30;;;2.40;;
6101;SDS011;3081;50.584;7.032;2023-05-29T04:31:22;7.40;;;2.40;;
6101;SDS011;3081;50.584;7.032;2023-05-29T04:33:50;7.33;;;2.60;;
6101;SDS011;3081;50.584;7.032;2023-05-29T04:36:20;5.03;;;1.90;;
6101;SDS011;3081;50.584;7.032;2023-05-29T04:38:50;8.60;;;3.00;;
6101;SDS011;3081;50.584;7.032;2023-05-29T04:41:18;10.17;;;3.70;;
6101;SDS011;3081;50.584;7.032;2023-05-29T04:43:48;9.00;;;3.30;;
6101;SDS011;3081;50.584;7.032;2023-05-29T04:46:16;9.10;;;4.00;;
6101;SDS011;3081;50.584;7.032;2023-05-29T04:48:43;12.20;;;3.43;;
6101;SDS011;3081;50.584;7.032;2023-05-29T04:51:10;6.40;;;2.70;;
6101;SDS011;3081;50.584;7.032;2023-05-29T04:53:38;9.07;;;4.00;;
6101;SDS011;3081;50.584;7.032;2023-05-29T04:56:06;10.63;;;3.60;;
6101;SDS011;3081;50.584;7.032;2023-05-29T04:58:33;8.40;;;3.30;;
6101;SDS011;3081;50.584;7.032;2023-05-29T05:01:00;8.63;;;3.83;;
6101;SDS011;3081;50.584;7.032;2023-05-29T05:03:28;9.45;;;4.20;;
6101;SDS011;3081;50.584;7.032;2023-05-29T05:05:55;7.90;;;3.93;;
6101;SDS011;3081;50.584;7.032;2023-05-29T05:08:23;9.90;;;3.47;;
6101;SDS011;3081;50.584;7.032;2023-05-29T05:10:51;9.63;;;4.00;;
6101;SDS011;3081;50.584;7.032;2023-05-29T05:13:18;10.97;;;4.60;;
6101;SDS011;3081;50.584;7.032;2023-05-29T05:15:45;9.97;;;4.00;;
6101;SDS011;3081;50.584;7.032;2023-05-29T05:18:12;7.60;;;3.57;;
6101;SDS011;3081;50.584;7.032;2023-05-29T05:20:39;11.50;;;3.53;;
6101;SDS011;3081;50.584;7.032;2023-05-29T05:23:06;8.27;;;3.57;;
6101;SDS011;3081;50.584;7.032;2023-05-29T05:25:33;8.40;;;4.00;;
6101;SDS011;3081;50.584;7.032;2023-05-29T05:28:01;10.97;;;4.47;;
6101;SDS011;3081;50.584;7.032;2023-05-29T05:30:29;12.40;;;3.30;;
6101;SDS011;3081;50.584;7.032;2023-05-29T05:32:56;8.33;;;2.70;;
6101;SDS011;3081;50.584;7.032;2023-05-29T05:35:23;10.33;;;2.87;;
6101;SDS011;3081;50.584;7.032;2023-05-29T05:37:50;13.53;;;3.17;;
6101;SDS011;3081;50.584;7.032;2023-05-29T05:40:17;9.60;;;4.47;;
6101;SDS011;3081;50.584;7.032;2023-05-29T05:42:44;9.43;;;3.00;;
6101;SDS011;3081;50.584;7.032;2023-05-29T05:45:12;13.97;;;4.13;;
6101;SDS011;3081;50.584;7.032;2023-05-29T05:47:39;9.90;;;4.20;;
6101;SDS011;3081;50.584;7.032;2023-05-29T05:50:06;13.65;;;4.30;;
6101;SDS011;3081;50.584;7.032;2023-05-29T05:52:34;8.40;;;4.00;;
6101;SDS011;3081;50.584;7.032;2023-05-29T05:55:01;10.50;;;3.97;;
6101;SDS011;3081;50.584;7.032;2023-05-29T05:57:28;9.53;;;3.87;;
6101;SDS011;3081;50.584;7.032;2023-05-29T05:59:57;12.17;;;4.50;;
6101;SDS011;3081;50.584;7.032;2023-05-29T06:02:26;9.03;;;3.53;;
6101;SDS011;3081;50.584;7.032;2023-05-29T06:04:53;10.40;;;3.40;;
6101;SDS011;3081;50.584;7.032;2023-05-29T06:07:20;10.40;;;2.30;;
6101;SDS011;3081;50.584;7.032;2023-05-29T06:09:47;11.67;;;4.13;;
6101;SDS011;3081;50.584;7.032;2023-05-29T06:12:14;13.30;;;3.80;;
6101;SDS011;3081;50.584;7.032;2023-05-29T06:14:41;11.07;;;4.53;;
6101;SDS011;3081;50.584;7.032;2023-05-29T06:17:08;10.50;;;4.27;;
6101;SDS011;3081;50.584;7.032;2023-05-29T06:19:36;13.17;;;3.83;;
6101;SDS011;3081;50.584;7.032;2023-05-29T06:22:03;11.10;;;4.70;;
6101;SDS011;3081;50.584;7.032;2023-05-29T06:24:31;10.60;;;4.00;;
6101;SDS011;3081;50.584;7.032;2023-05-29T06:26:58;11.53;;;4.07;;
6101;SDS011;3081;50.584;7.032;2023-05-29T06:29:25;9.70;;;5.03;;
6101;SDS011;3081;50.584;7.032;2023-05-29T06:31:52;10.83;;;4.43;;
6101;SDS011;3081;50.584;7.032;2023-05-29T06:34:18;10.10;;;4.03;;
6101;SDS011;3081;50.584;7.032;2023-05-29T06:36:47;12.10;;;5.27;;
6101;SDS011;3081;50.584;7.032;2023-05-29T06:39:14;11.87;;;4.50;;
6101;SDS011;3081;50.584;7.032;2023-05-29T06:41:43;12.57;;;4.40;;
6101;SDS011;3081;50.584;7.032;2023-05-29T06:44:09;10.03;;;4.40;;
6101;SDS011;3081;50.584;7.032;2023-05-29T06:46:36;13.63;;;4.30;;
6101;SDS011;3081;50.584;7.032;2023-05-29T06:49:03;12.20;;;3.30;;
6101;SDS011;3081;50.584;7.032;2023-05-29T06:51:30;14.93;;;4.60;;
6101;SDS011;3081;50.584;7.032;2023-05-29T06:53:59;11.00;;;3.93;;
6101;SDS011;3081;50.584;7.032;2023-05-29T06:56:26;7.97;;;2.87;;
6101;SDS011;3081;50.584;7.032;2023-05-29T06:58:55;10.43;;;4.57;;
6101;SDS011;3081;50.584;7.032;2023-05-29T07:01:22;11.00;;;2.90;;
6101;SDS011;3081;50.584;7.032;2023-05-29T07:03:51;10.77;;;3.43;;
6101;SDS011;3081;50.584;7.032;2023-05-29T07:06:18;18.20;;;3.70;;
6101;SDS011;3081;50.584;7.032;2023-05-29T07:08:45;14.77;;;3.93;;
6101;SDS011;3081;50.584;7.032;2023-05-29T07:11:14;11.63;;;4.60;;
6101;SDS011;3081;50.584;7.032;2023-05-29T07:13:41;10.63;;;3.47;;
6101;SDS011;3081;50.584;7.032;2023-05-29T07:16:07;11.87;;;4.20;;
6101;SDS011;3081;50.584;7.032;2023-05-29T07:18:34;14.33;;;5.03;;
6101;SDS011;3081;50.584;7.032;2023-05-29T07:21:02;13.83;;;4.20;;
6101;SDS011;3081;50.584;7.032;2023-05-29T07:23:28;13.50;;;4.40;;
6101;SDS011;3081;50.584;7.032;2023-05-29T07:25:55;13.27;;;3.53;;
6101;SDS011;3081;50.584;7.032;2023-05-29T07:28:24;12.07;;;4.60;;
6101;SDS011;3081;50.584;7.032;2023-05-29T07:30:50;14.87;;;4.70;;
6101;SDS011;3081;50.584;7.032;2023-05-29T07:33:17;14.47;;;4.77;;
6101;SDS011;3081;50.584;7.032;2023-05-29T07:35:45;17.87;;;4.57;;
6101;SDS011;3081;50.584;7.032;2023-05-29T07:38:12;12.00;;;3.07;;
6101;SDS011;3081;50.584;7.032;2023-05-29T07:40:39;12.73;;;4.37;;
6101;SDS011;3081;50.584;7.032;2023-05-29T07:43:06;14.70;;;5.13;;
6101;SDS011;3081;50.584;7.032;2023-05-29T07:45:34;11.63;;;4.97;;
6101;SDS011;3081;50.584;7.032;2023-05-29T07:48:01;15.60;;;5.73;;
6101;SDS011;3081;50.584;7.032;2023-05-29T07:50:28;15.87;;;5.40;;
6101;SDS011;3081;50.584;7.032;2023-05-29T07:52:54;11.83;;;4.13;;
6101;SDS011;3081;50.584;7.032;2023-05-29T07:55:22;15.40;;;4.63;;
6101;SDS011;3081;50.584;7.032;2023-05-29T07:57:49;15.47;;;4.70;;
6101;SDS011;3081;50.584;7.032;2023-05-29T08:00:16;18.43;;;5.50;;
6101;SDS011;3081;50.584;7.032;2023-05-29T08:02:44;14.00;;;4.97;;
6101;SDS011;3081;50.584;7.032;2023-05-29T08:05:11;16.33;;;5.10;;
6101;SDS011;3081;50.584;7.032;2023-05-29T08:07:38;17.07;;;4.73;;
6101;SDS011;3081;50.584;7.032;2023-05-29T08:10:06;16.40;;;4.60;;
6101;SDS011;3081;50.584;7.032;2023-05-29T08:12:34;16.87;;;4.40;;
6101;SDS011;3081;50.584;7.032;2023-05-29T08:15:01;14.97;;;5.17;;
6101;SDS011;3081;50.584;7.032;2023-05-29T08:17:28;14.60;;;5.00;;
6101;SDS011;3081;50.584;7.032;2023-05-29T08:19:56;29.07;;;7.27;;
6101;SDS011;3081;50.584;7.032;2023-05-29T08:22:27;16.03;;;5.00;;
6101;SDS011;3081;50.584;7.032;2023-05-29T08:24:55;17.90;;;4.67;;
6101;SDS011;3081;50.584;7.032;2023-05-29T08:27:22;16.37;;;5.10;;
6101;SDS011;3081;50.584;7.032;2023-05-29T08:29:49;19.60;;;5.50;;
6101;SDS011;3081;50.584;7.032;2023-05-29T08:32:16;14.90;;;5.00;;
6101;SDS011;3081;50.584;7.032;2023-05-29T08:34:43;18.70;;;5.73;;
6101;SDS011;3081;50.584;7.032;2023-05-29T08:37:12;17.30;;;5.10;;
6101;SDS011;3081;50.584;7.032;2023-05-29T08:39:39;16.77;;;5.40;;
6101;SDS011;3081;50.584;7.032;2023-05-29T08:42:07;15.70;;;5.40;;
6101;SDS011;3081;50.584;7.032;2023-05-29T08:44:39;19.17;;;4.80;;
6101;SDS011;3081;50.584;7.032;2023-05-29T08:47:06;13.00;;;3.43;;
6101;SDS011;3081;50.584;7.032;2023-05-29T08:49:38;13.03;;;4.50;;
6101;SDS011;3081;50.584;7.032;2023-05-29T08:52:09;17.47;;;4.90;;
6101;SDS011;3081;50.584;7.032;2023-05-29T08:54:41;16.77;;;4.80;;
6101;SDS011;3081;50.584;7.032;2023-05-29T08:57:10;14.33;;;5.87;;
6101;SDS011;3081;50.584;7.032;2023-05-29T08:59:39;16.80;;;4.70;;
6101;SDS011;3081;50.584;7.032;2023-05-29T09:02:09;18.73;;;4.57;;
6101;SDS011;3081;50.584;7.032;2023-05-29T09:04:36;14.57;;;4.23;;
6101;SDS011;3081;50.584;7.032;2023-05-29T09:07:04;16.33;;;5.30;;
6101;SDS011;3081;50.584;7.032;2023-05-29T09:09:34;17.93;;;4.93;;
6101;SDS011;3081;50.584;7.032;2023-05-29T09:12:02;16.33;;;4.03;;
6101;SDS011;3081;50.584;7.032;2023-05-29T09:14:34;17.70;;;3.83;;
6101;SDS011;3081;50.584;7.032;2023-05-29T09:17:02;13.63;;;4.47;;
6101;SDS011;3081;50.584;7.032;2023-05-29T09:19:30;17.90;;;5.10;;
6101;SDS011;3081;50.584;7.032;2023-05-29T09:22:01;15.17;;;4.87;;
6101;SDS011;3081;50.584;7.032;2023-05-29T09:24:29;18.90;;;4.80;;
6101;SDS011;3081;50.584;7.032;2023-05-29T09:26:56;17.20;;;5.40;;
6101;SDS011;3081;50.584;7.032;2023-05-29T09:29:26;17.10;;;4.63;;
6101;SDS011;3081;50.584;7.032;2023-05-29T09:31:53;19.50;;;5.70;;
6101;SDS011;3081;50.584;7.032;2023-05-29T09:34:22;17.30;;;4.33;;
6101;SDS011;3081;50.584;7.032;2023-05-29T09:36:51;17.27;;;4.50;;
6101;SDS011;3081;50.584;7.032;2023-05-29T09:39:18;17.50;;;4.63;;
6101;SDS011;3081;50.584;7.032;2023-05-29T09:41:45;19.07;;;4.83;;
6101;SDS011;3081;50.584;7.032;2023-05-29T09:44:13;14.97;;;3.80;;
6101;SDS011;3081;50.584;7.032;2023-05-29T09:46:42;13.80;;;3.63;;
6101;SDS011;3081;50.584;7.032;2023-05-29T09:49:11;13.50;;;4.30;;
6101;SDS011;3081;50.584;7.032;2023-05-29T09:51:39;15.63;;;4.20;;
6101;SDS011;3081;50.584;7.032;2023-05-29T09:54:12;14.60;;;4.80;;
6101;SDS011;3081;50.584;7.032;2023-05-29T09:56:40;17.33;;;4.37;;
6101;SDS011;3081;50.584;7.032;2023-05-29T09:59:09;17.40;;;4.23;;
6101;SDS011;3081;50.584;7.032;2023-05-29T10:01:38;15.27;;;4.07;;
6101;SDS011;3081;50.584;7.032;2023-05-29T10:04:09;14.83;;;3.80;;
6101;SDS011;3081;50.584;7.032;2023-05-29T10:06:37;13.70;;;3.90;;
6101;SDS011;3081;50.584;7.032;2023-05-29T10:09:08;18.47;;;4.33;;
6101;SDS011;3081;50.584;7.032;2023-05-29T10:11:37;15.73;;;3.90;;
6101;SDS011;3081;50.584;7.032;2023-05-29T10:14:05;17.30;;;4.10;;
6101;SDS011;3081;50.584;7.032;2023-05-29T10:16:33;13.60;;;3.73;;
6101;SDS011;3081;50.584;7.032;2023-05-29T10:19:06;14.97;;;3.83;;
6101;SDS011;3081;50.584;7.032;2023-05-29T10:21:39;14.20;;;4.03;;
6101;SDS011;3081;50.584;7.032;2023-05-29T10:24:07;15.37;;;3.47;;
6101;SDS011;3081;50.584;7.032;2023-05-29T10:26:36;14.87;;;3.43;;
6101;SDS011;3081;50.584;7.032;2023-05-29T10:29:08;13.93;;;3.77;;
6101;SDS011;3081;50.584;7.032;2023-05-29T10:31:43;20.33;;;4.17;;
6101;SDS011;3081;50.584;7.032;2023-05-29T10:34:23;16.40;;;3.63;;
6101;SDS011;3081;50.584;7.032;2023-05-29T10:37:00;14.97;;;4.30;;
6101;SDS011;3081;50.584;7.032;2023-05-29T10:39:31;13.37;;;3.73;;
6101;SDS011;3081;50.584;7.032;2023-05-29T10:41:59;12.07;;;3.60;;
6101;SDS011;3081;50.584;7.032;2023-05-29T10:44:39;12.87;;;4.23;;
6101;SDS011;3081;50.584;7.032;2023-05-29T10:47:06;13.77;;;3.37;;
6101;SDS011;3081;50.584;7.032;2023-05-29T10:49:38;15.73;;;3.87;;
6101;SDS011;3081;50.584;7.032;2023-05-29T10:52:06;11.93;;;3.37;;
6101;SDS011;3081;50.584;7.032;2023-05-29T10:54:50;13.53;;;4.30;;
6101;SDS011;3081;50.584;7.032;2023-05-29T10:57:20;13.10;;;4.10;;
6101;SDS011;3081;50.584;7.032;2023-05-29T10:59:57;10.90;;;3.37;;
6101;SDS011;3081;50.584;7.032;2023-05-29T11:02:37;13.40;;;3.27;;
6101;SDS011;3081;50.584;7.032;2023-05-29T11:05:07;12.90;;;3.20;;
6101;SDS011;3081;50.584;7.032;2023-05-29T11:07:51;11.00;;;3.67;;
6101;SDS011;3081;50.584;7.032;2023-05-29T11:13:07;12.33;;;3.50;;
6101;SDS011;3081;50.584;7.032;2023-05-29T11:15:34;16.20;;;3.03;;
6101;SDS011;3081;50.584;7.032;2023-05-29T11:18:05;10.30;;;2.97;;
6101;SDS011;3081;50.584;7.032;2023-05-29T11:20:41;11.60;;;2.87;;
6101;SDS011;3081;50.584;7.032;2023-05-29T11:23:14;13.20;;;4.00;;
6101;SDS011;3081;50.584;7.032;2023-05-29T11:25:43;12.73;;;3.40;;
6101;SDS011;3081;50.584;7.032;2023-05-29T11:28:11;16.17;;;4.07;;
6101;SDS011;3081;50.584;7.032;2023-05-29T11:30:42;11.63;;;3.20;;
6101;SDS011;3081;50.584;7.032;2023-05-29T11:33:13;11.07;;;3.23;;
6101;SDS011;3081;50.584;7.032;2023-05-29T11:35:57;12.50;;;2.80;;
6101;SDS011;3081;50.584;7.032;2023-05-29T11:38:25;10.47;;;2.77;;
6101;SDS011;3081;50.584;7.032;2023-05-29T11:40:53;11.80;;;3.90;;
6101;SDS011;3081;50.584;7.032;2023-05-29T11:43:20;14.63;;;2.93;;
6101;SDS011;3081;50.584;7.032;2023-05-29T11:45:48;13.57;;;3.63;;
6101;SDS011;3081;50.584;7.032;2023-05-29T11:48:14;16.00;;;4.40;;
6101;SDS011;3081;50.584;7.032;2023-05-29T11:50:41;13.80;;;3.00;;
6101;SDS011;3081;50.584;7.032;2023-05-29T11:53:10;14.03;;;4.10;;
6101;SDS011;3081;50.584;7.032;2023-05-29T11:55:38;11.77;;;3.13;;
6101;SDS011;3081;50.584;7.032;2023-05-29T11:58:05;12.83;;;3.60;;
6101;SDS011;3081;50.584;7.032;2023-05-29T12:00:33;10.90;;;2.67;;
6101;SDS011;3081;50.584;7.032;2023-05-29T12:03:01;10.83;;;3.03;;
6101;SDS011;3081;50.584;7.032;2023-05-29T12:05:29;11.80;;;3.03;;
6101;SDS011;3081;50.584;7.032;2023-05-29T12:07:57;16.40;;;3.97;;
6101;SDS011;3081;50.584;7.032;2023-05-29T12:10:27;13.00;;;3.60;;
6101;SDS011;3081;50.584;7.032;2023-05-29T12:12:55;11.80;;;3.40;;
6101;SDS011;3081;50.584;7.032;2023-05-29T12:15:22;10.63;;;3.40;;
6101;SDS011;3081;50.584;7.032;2023-05-29T12:17:50;14.90;;;4.27;;
6101;SDS011;3081;50.584;7.032;2023-05-29T12:20:18;12.33;;;3.23;;
6101;SDS011;3081;50.584;7.032;2023-05-29T12:22:46;12.00;;;3.53;;
6101;SDS011;3081;50.584;7.032;2023-05-29T12:25:13;13.30;;;3.00;;
6101;SDS011;3081;50.584;7.032;2023-05-29T12:27:44;16.63;;;3.37;;
6101;SDS011;3081;50.584;7.032;2023-05-29T12:30:12;12.10;;;3.10;;
6101;SDS011;3081;50.584;7.032;2023-05-29T12:32:41;11.70;;;3.17;;
6101;SDS011;3081;50.584;7.032;2023-05-29T12:35:13;13.83;;;3.80;;
6101;SDS011;3081;50.584;7.032;2023-05-29T12:37:42;13.13;;;3.60;;
6101;SDS011;3081;50.584;7.032;2023-05-29T12:40:10;10.77;;;2.70;;
6101;SDS011;3081;50.584;7.032;2023-05-29T12:42:40;17.17;;;3.70;;
6101;SDS011;3081;50.584;7.032;2023-05-29T12:45:09;13.90;;;4.03;;
6101;SDS011;3081;50.584;7.032;2023-05-29T12:47:36;10.57;;;3.20;;
6101;SDS011;3081;50.584;7.032;2023-05-29T12:50:21;14.70;;;3.53;;
6101;SDS011;3081;50.584;7.032;2023-05-29T12:52:53;12.20;;;3.00;;
6101;SDS011;3081;50.584;7.032;2023-05-29T12:55:21;12.70;;;3.60;;
6101;SDS011;3081;50.584;7.032;2023-05-29T12:57:48;11.40;;;3.23;;
6101;SDS011;3081;50.584;7.032;2023-05-29T13:00:17;12.43;;;3.20;;
6101;SDS011;3081;50.584;7.032;2023-05-29T13:02:45;11.00;;;2.70;;
6101;SDS011;3081;50.584;7.032;2023-05-29T13:05:13;11.57;;;3.37;;
6101;SDS011;3081;50.584;7.032;2023-05-29T13:07:40;11.73;;;3.40;;
6101;SDS011;3081;50.584;7.032;2023-05-29T13:10:08;9.87;;;2.93;;
6101;SDS011;3081;50.584;7.032;2023-05-29T13:12:35;9.77;;;2.57;;
6101;SDS011;3081;50.584;7.032;2023-05-29T13:15:02;10.20;;;3.20;;
6101;SDS011;3081;50.584;7.032;2023-05-29T13:17:32;8.90;;;2.40;;
6101;SDS011;3081;50.584;7.032;2023-05-29T13:19:59;9.03;;;2.93;;
6101;SDS011;3081;50.584;7.032;2023-05-29T13:22:26;9.07;;;2.77;;
6101;SDS011;3081;50.584;7.032;2023-05-29T13:24:56;8.27;;;2.40;;
6101;SDS011;3081;50.584;7.032;2023-05-29T13:27:24;10.93;;;2.60;;
6101;SDS011;3081;50.584;7.032;2023-05-29T13:29:51;8.97;;;2.57;;
6101;SDS011;3081;50.584;7.032;2023-05-29T13:32:18;11.60;;;2.70;;
6101;SDS011;3081;50.584;7.032;2023-05-29T13:34:46;8.50;;;2.30;;
6101;SDS011;3081;50.584;7.032;2023-05-29T13:37:13;9.23;;;2.70;;
6101;SDS011;3081;50.584;7.032;2023-05-29T13:39:40;7.53;;;1.93;;
6101;SDS011;3081;50.584;7.032;2023-05-29T13:42:07;9.60;;;2.83;;
6101;SDS011;3081;50.584;7.032;2023-05-29T13:44:35;9.00;;;2.47;;
6101;SDS011;3081;50.584;7.032;2023-05-29T13:47:04;8.17;;;2.20;;
6101;SDS011;3081;50.584;7.032;2023-05-29T13:49:32;9.10;;;2.97;;
6101;SDS011;3081;50.584;7.032;2023-05-29T13:52:01;8.20;;;2.40;;
6101;SDS011;3081;50.584;7.032;2023-05-29T13:54:29;7.67;;;2.70;;
6101;SDS011;3081;50.584;7.032;2023-05-29T13:57:00;7.57;;;2.37;;
6101;SDS011;3081;50.584;7.032;2023-05-29T13:59:27;7.27;;;2.30;;
6101;SDS011;3081;50.584;7.032;2023-05-29T14:01:54;7.50;;;2.40;;
6101;SDS011;3081;50.584;7.032;2023-05-29T14:04:20;8.53;;;3.43;;
6101;SDS011;3081;50.584;7.032;2023-05-29T14:06:47;7.67;;;2.70;;
6101;SDS011;3081;50.584;7.032;2023-05-29T14:09:16;10.23;;;2.63;;
6101;SDS011;3081;50.584;7.032;2023-05-29T14:11:47;7.17;;;2.30;;
6101;SDS011;3081;50.584;7.032;2023-05-29T14:14:14;7.33;;;2.13;;
6101;SDS011;3081;50.584;7.032;2023-05-29T14:16:41;6.63;;;2.10;;
6101;SDS011;3081;50.584;7.032;2023-05-29T14:19:08;10.33;;;2.27;;
6101;SDS011;3081;50.584;7.032;2023-05-29T14:21:35;6.10;;;2.20;;
6101;SDS011;3081;50.584;7.032;2023-05-29T14:24:02;6.60;;;2.00;;
6101;SDS011;3081;50.584;7.032;2023-05-29T14:26:30;5.50;;;1.77;;
6101;SDS011;3081;50.584;7.032;2023-05-29T14:28:57;7.60;;;2.30;;
6101;SDS011;3081;50.584;7.032;2023-05-29T14:31:24;8.00;;;2.27;;
6101;SDS011;3081;50.584;7.032;2023-05-29T14:33:51;7.67;;;2.40;;
6101;SDS011;3081;50.584;7.032;2023-05-29T14:36:18;7.70;;;2.50;;
6101;SDS011;3081;50.584;7.032;2023-05-29T14:38:45;6.93;;;2.10;;
6101;SDS011;3081;50.584;7.032;2023-05-29T14:41:14;5.93;;;2.10;;
6101;SDS011;3081;50.584;7.032;2023-05-29T14:43:42;6.80;;;2.10;;
6101;SDS011;3081;50.584;7.032;2023-05-29T14:46:09;5.70;;;1.83;;
6101;SDS011;3081;50.584;7.032;2023-05-29T14:48:36;5.33;;;2.00;;
6101;SDS011;3081;50.584;7.032;2023-05-29T14:51:03;5.00;;;1.60;;
6101;SDS011;3081;50.584;7.032;2023-05-29T14:53:30;4.50;;;1.60;;
6101;SDS011;3081;50.584;7.032;2023-05-29T14:55:57;5.70;;;1.53;;
6101;SDS011;3081;50.584;7.032;2023-05-29T14:58:24;5.53;;;2.03;;
6101;SDS011;3081;50.584;7.032;2023-05-29T15:00:53;5.07;;;1.60;;
6101;SDS011;3081;50.584;7.032;2023-05-29T15:03:20;5.70;;;1.90;;
6101;SDS011;3081;50.584;7.032;2023-05-29T15:05:51;8.83;;;2.03;;
6101;SDS011;3081;50.584;7.032;2023-05-29T15:08:18;8.30;;;2.00;;
6101;SDS011;3081;50.584;7.032;2023-05-29T15:10:45;5.35;;;1.63;;
6101;SDS011;3081;50.584;7.032;2023-05-29T15:13:12;5.70;;;1.80;;
6101;SDS011;3081;50.584;7.032;2023-05-29T15:15:39;6.13;;;1.70;;